sensor_id;sensor_type;location;lat;lon;timestamp;P1;durP1;ratioP1;P2;durP2;ratioP2
15285;SDS011;7744;52.172;10.668;2023-04-26T00:02:22;9.00;;;2.00;;
15285;SDS011;7744;52.172;10.668;2023-04-26T00:04:51;4.87;;;1.80;;
15285;SDS011;7744;52.172;10.668;2023-04-26T00:07:21;4.67;;;1.80;;
15285;SDS011;7744;52.172;10.668;2023-04-26T00:09:48;7.87;;;1.90;;
15285;SDS011;7744;52.172;10.668;2023-04-26T00:12:16;7.27;;;1.93;;
15285;SDS011;7744;52.172;10.668;2023-04-26T00:14:42;8.87;;;2.50;;
15285;SDS011;7744;52.172;10.668;2023-04-26T00:17:08;4.13;;;1.60;;
15285;SDS011;7744;52.172;10.668;2023-04-26T00:19:33;4.03;;;1.60;;
15285;SDS011;7744;52.172;10.668;2023-04-26T00:21:59;10.20;;;1.80;;
15285;SDS011;7744;52.172;10.668;2023-04-26T00:24:24;6.50;;;2.10;;
15285;SDS011;7744;52.172;10.668;2023-04-26T00:26:52;6.40;;;2.30;;
15285;SDS011;7744;52.172;10.668;2023-04-26T00:29:21;8.97;;;2.30;;
15285;SDS011;7744;52.172;10.668;2023-04-26T00:36:57;7.43;;;1.70;;
15285;SDS011;7744;52.172;10.668;2023-04-26T00:39:23;5.63;;;1.97;;
15285;SDS011;7744;52.172;10.668;2023-04-26T00:41:55;7.60;;;2.63;;
15285;SDS011;7744;52.172;10.668;2023-04-26T00:44:21;4.87;;;1.73;;
15285;SDS011;7744;52.172;10.668;2023-04-26T00:46:47;4.73;;;2.20;;
15285;SDS011;7744;52.172;10.668;2023-04-26T00:49:17;5.77;;;1.70;;
15285;SDS011;7744;52.172;10.668;2023-04-26T00:51:47;6.83;;;1.87;;
15285;SDS011;7744;52.172;10.668;2023-04-26T00:57:55;4.37;;;1.93;;
15285;SDS011;7744;52.172;10.668;2023-04-26T01:00:21;6.90;;;1.83;;
15285;SDS011;7744;52.172;10.668;2023-04-26T01:02:47;5.43;;;1.93;;
15285;SDS011;7744;52.172;10.668;2023-04-26T01:05:12;4.40;;;2.10;;
15285;SDS011;7744;52.172;10.668;2023-04-26T01:07:38;4.63;;;2.10;;
15285;SDS011;7744;52.172;10.668;2023-04-26T01:10:04;6.63;;;2.03;;
15285;SDS011;7744;52.172;10.668;2023-04-26T01:12:33;7.27;;;2.40;;
15285;SDS011;7744;52.172;10.668;2023-04-26T01:14:59;5.57;;;2.20;;
15285;SDS011;7744;52.172;10.668;2023-04-26T01:17:25;5.57;;;1.80;;
15285;SDS011;7744;52.172;10.668;2023-04-26T01:19:51;8.23;;;2.40;;
15285;SDS011;7744;52.172;10.668;2023-04-26T01:22:17;6.87;;;2.60;;
15285;SDS011;7744;52.172;10.668;2023-04-26T01:24:43;4.27;;;2.07;;
15285;SDS011;7744;52.172;10.668;2023-04-26T01:27:10;5.33;;;2.10;;
15285;SDS011;7744;52.172;10.668;2023-04-26T01:29:36;7.00;;;2.10;;
15285;SDS011;7744;52.172;10.668;2023-04-26T01:32:02;6.57;;;2.10;;
15285;SDS011;7744;52.172;10.668;2023-04-26T01:34:28;8.13;;;2.50;;
15285;SDS011;7744;52.172;10.668;2023-04-26T01:36:53;10.70;;;3.13;;
15285;SDS011;7744;52.172;10.668;2023-04-26T01:39:19;7.90;;;2.73;;
15285;SDS011;7744;52.172;10.668;2023-04-26T01:41:45;6.50;;;2.20;;
15285;SDS011;7744;52.172;10.668;2023-04-26T01:44:10;5.80;;;2.20;;
15285;SDS011;7744;52.172;10.668;2023-04-26T01:46:36;7.90;;;2.27;;
15285;SDS011;7744;52.172;10.668;2023-04-26T01:49:02;5.43;;;2.03;;
15285;SDS011;7744;52.172;10.668;2023-04-26T01:51:27;8.10;;;2.10;;
15285;SDS011;7744;52.172;10.668;2023-04-26T01:53:53;7.87;;;2.13;;
15285;SDS011;7744;52.172;10.668;2023-04-26T01:56:19;7.77;;;2.53;;
15285;SDS011;7744;52.172;10.668;2023-04-26T01:58:45;7.20;;;2.43;;
15285;SDS011;7744;52.172;10.668;2023-04-26T02:01:10;8.03;;;2.30;;
15285;SDS011;7744;52.172;10.668;2023-04-26T02:03:36;7.40;;;2.47;;
15285;SDS011;7744;52.172;10.668;2023-04-26T02:06:02;4.97;;;2.57;;
15285;SDS011;7744;52.172;10.668;2023-04-26T02:08:28;7.47;;;2.70;;
15285;SDS011;7744;52.172;10.668;2023-04-26T02:10:54;9.20;;;3.47;;
15285;SDS011;7744;52.172;10.668;2023-04-26T02:13:20;8.43;;;3.10;;
15285;SDS011;7744;52.172;10.668;2023-04-26T02:15:46;7.83;;;3.03;;
15285;SDS011;7744;52.172;10.668;2023-04-26T02:18:15;6.43;;;2.80;;
15285;SDS011;7744;52.172;10.668;2023-04-26T02:20:41;7.07;;;2.40;;
15285;SDS011;7744;52.172;10.668;2023-04-26T02:23:08;7.07;;;2.50;;
15285;SDS011;7744;52.172;10.668;2023-04-26T02:25:34;5.87;;;2.17;;
15285;SDS011;7744;52.172;10.668;2023-04-26T02:28:01;6.40;;;2.30;;
15285;SDS011;7744;52.172;10.668;2023-04-26T02:30:27;9.07;;;2.70;;
15285;SDS011;7744;52.172;10.668;2023-04-26T02:32:53;4.67;;;2.13;;
15285;SDS011;7744;52.172;10.668;2023-04-26T02:35:18;7.43;;;2.33;;
15285;SDS011;7744;52.172;10.668;2023-04-26T02:37:44;10.33;;;2.30;;
15285;SDS011;7744;52.172;10.668;2023-04-26T02:40:12;6.57;;;2.30;;
15285;SDS011;7744;52.172;10.668;2023-04-26T02:42:39;5.50;;;2.40;;
15285;SDS011;7744;52.172;10.668;2023-04-26T02:45:07;3.53;;;2.17;;
15285;SDS011;7744;52.172;10.668;2023-04-26T02:47:32;7.03;;;2.40;;
15285;SDS011;7744;52.172;10.668;2023-04-26T02:50:01;6.47;;;2.50;;
15285;SDS011;7744;52.172;10.668;2023-04-26T02:52:27;7.77;;;2.10;;
15285;SDS011;7744;52.172;10.668;2023-04-26T02:54:53;5.43;;;2.07;;
15285;SDS011;7744;52.172;10.668;2023-04-26T02:57:19;6.47;;;2.07;;
15285;SDS011;7744;52.172;10.668;2023-04-26T02:59:44;8.10;;;2.47;;
15285;SDS011;7744;52.172;10.668;2023-04-26T03:02:10;6.67;;;2.60;;
15285;SDS011;7744;52.172;10.668;2023-04-26T03:04:36;5.37;;;1.90;;
15285;SDS011;7744;52.172;10.668;2023-04-26T03:07:04;9.63;;;2.30;;
15285;SDS011;7744;52.172;10.668;2023-04-26T03:09:29;6.30;;;2.33;;
15285;SDS011;7744;52.172;10.668;2023-04-26T03:11:55;7.13;;;2.17;;
15285;SDS011;7744;52.172;10.668;2023-04-26T03:14:21;5.90;;;2.13;;
15285;SDS011;7744;52.172;10.668;2023-04-26T03:16:47;9.03;;;2.40;;
15285;SDS011;7744;52.172;10.668;2023-04-26T03:19:13;5.27;;;2.13;;
15285;SDS011;7744;52.172;10.668;2023-04-26T03:21:38;8.83;;;2.70;;
15285;SDS011;7744;52.172;10.668;2023-04-26T03:24:04;7.40;;;2.77;;
15285;SDS011;7744;52.172;10.668;2023-04-26T03:26:31;6.87;;;2.47;;
15285;SDS011;7744;52.172;10.668;2023-04-26T03:28:56;5.83;;;2.57;;
15285;SDS011;7744;52.172;10.668;2023-04-26T03:31:25;8.90;;;2.77;;
15285;SDS011;7744;52.172;10.668;2023-04-26T03:33:51;6.30;;;2.33;;
15285;SDS011;7744;52.172;10.668;2023-04-26T03:36:16;9.03;;;2.50;;
15285;SDS011;7744;52.172;10.668;2023-04-26T03:38:42;6.47;;;2.70;;
15285;SDS011;7744;52.172;10.668;2023-04-26T03:41:07;3.47;;;2.23;;
15285;SDS011;7744;52.172;10.668;2023-04-26T03:43:33;6.73;;;2.43;;
15285;SDS011;7744;52.172;10.668;2023-04-26T03:45:59;4.70;;;2.67;;
15285;SDS011;7744;52.172;10.668;2023-04-26T03:48:25;8.53;;;2.57;;
15285;SDS011;7744;52.172;10.668;2023-04-26T03:50:51;7.27;;;2.63;;
15285;SDS011;7744;52.172;10.668;2023-04-26T03:53:17;6.53;;;2.73;;
15285;SDS011;7744;52.172;10.668;2023-04-26T03:55:42;6.47;;;2.53;;
15285;SDS011;7744;52.172;10.668;2023-04-26T03:58:08;12.53;;;4.30;;
15285;SDS011;7744;52.172;10.668;2023-04-26T04:00:37;5.27;;;2.67;;
15285;SDS011;7744;52.172;10.668;2023-04-26T04:03:05;7.73;;;2.20;;
15285;SDS011;7744;52.172;10.668;2023-04-26T04:05:30;6.83;;;2.67;;
15285;SDS011;7744;52.172;10.668;2023-04-26T04:07:56;8.23;;;2.93;;
15285;SDS011;7744;52.172;10.668;2023-04-26T04:10:22;8.40;;;2.90;;
15285;SDS011;7744;52.172;10.668;2023-04-26T04:12:48;5.90;;;2.37;;
15285;SDS011;7744;52.172;10.668;2023-04-26T04:15:15;7.03;;;2.80;;
15285;SDS011;7744;52.172;10.668;2023-04-26T04:17:40;8.13;;;3.63;;
15285;SDS011;7744;52.172;10.668;2023-04-26T04:20:06;7.37;;;2.87;;
15285;SDS011;7744;52.172;10.668;2023-04-26T04:22:32;5.23;;;2.90;;
15285;SDS011;7744;52.172;10.668;2023-04-26T04:24:58;7.17;;;2.60;;
15285;SDS011;7744;52.172;10.668;2023-04-26T04:27:24;9.47;;;2.73;;
15285;SDS011;7744;52.172;10.668;2023-04-26T04:29:50;5.93;;;2.50;;
15285;SDS011;7744;52.172;10.668;2023-04-26T04:32:18;3.83;;;2.23;;
15285;SDS011;7744;52.172;10.668;2023-04-26T04:34:43;6.47;;;2.53;;
15285;SDS011;7744;52.172;10.668;2023-04-26T04:37:09;6.03;;;2.90;;
15285;SDS011;7744;52.172;10.668;2023-04-26T04:39:35;6.10;;;2.40;;
15285;SDS011;7744;52.172;10.668;2023-04-26T04:42:01;4.43;;;2.53;;
15285;SDS011;7744;52.172;10.668;2023-04-26T04:44:27;5.53;;;2.60;;
15285;SDS011;7744;52.172;10.668;2023-04-26T04:46:52;5.33;;;2.97;;
15285;SDS011;7744;52.172;10.668;2023-04-26T04:49:18;9.13;;;2.70;;
15285;SDS011;7744;52.172;10.668;2023-04-26T04:51:44;6.80;;;2.63;;
15285;SDS011;7744;52.172;10.668;2023-04-26T04:54:13;5.37;;;2.77;;
15285;SDS011;7744;52.172;10.668;2023-04-26T04:56:40;8.17;;;2.83;;
15285;SDS011;7744;52.172;10.668;2023-04-26T04:59:07;6.30;;;2.73;;
15285;SDS011;7744;52.172;10.668;2023-04-26T05:01:33;7.70;;;3.17;;
15285;SDS011;7744;52.172;10.668;2023-04-26T05:03:59;7.37;;;2.80;;
15285;SDS011;7744;52.172;10.668;2023-04-26T05:06:25;8.10;;;2.70;;
15285;SDS011;7744;52.172;10.668;2023-04-26T05:08:52;7.67;;;3.17;;
15285;SDS011;7744;52.172;10.668;2023-04-26T05:11:18;8.97;;;3.40;;
15285;SDS011;7744;52.172;10.668;2023-04-26T05:13:44;12.33;;;3.37;;
15285;SDS011;7744;52.172;10.668;2023-04-26T05:16:10;9.50;;;3.03;;
15285;SDS011;7744;52.172;10.668;2023-04-26T05:18:36;6.07;;;3.10;;
15285;SDS011;7744;52.172;10.668;2023-04-26T05:21:01;7.07;;;2.70;;
15285;SDS011;7744;52.172;10.668;2023-04-26T05:23:27;9.40;;;3.00;;
15285;SDS011;7744;52.172;10.668;2023-04-26T05:25:53;9.00;;;3.20;;
15285;SDS011;7744;52.172;10.668;2023-04-26T05:28:18;7.97;;;3.37;;
15285;SDS011;7744;52.172;10.668;2023-04-26T05:30:44;7.20;;;3.10;;
15285;SDS011;7744;52.172;10.668;2023-04-26T05:33:10;9.77;;;3.67;;
15285;SDS011;7744;52.172;10.668;2023-04-26T05:35:36;7.23;;;3.40;;
15285;SDS011;7744;52.172;10.668;2023-04-26T05:38:02;8.33;;;3.00;;
15285;SDS011;7744;52.172;10.668;2023-04-26T05:40:28;8.30;;;3.30;;
15285;SDS011;7744;52.172;10.668;2023-04-26T05:42:54;10.07;;;3.43;;
15285;SDS011;7744;52.172;10.668;2023-04-26T05:45:19;10.60;;;3.43;;
15285;SDS011;7744;52.172;10.668;2023-04-26T05:47:45;11.73;;;3.60;;
15285;SDS011;7744;52.172;10.668;2023-04-26T05:50:13;8.00;;;3.60;;
15285;SDS011;7744;52.172;10.668;2023-04-26T05:52:39;8.83;;;3.40;;
15285;SDS011;7744;52.172;10.668;2023-04-26T05:55:05;9.13;;;3.33;;
15285;SDS011;7744;52.172;10.668;2023-04-26T05:57:30;10.63;;;4.20;;
15285;SDS011;7744;52.172;10.668;2023-04-26T05:59:56;7.53;;;3.00;;
15285;SDS011;7744;52.172;10.668;2023-04-26T06:02:22;14.97;;;4.33;;
15285;SDS011;7744;52.172;10.668;2023-04-26T06:04:47;10.77;;;3.53;;
15285;SDS011;7744;52.172;10.668;2023-04-26T06:07:13;7.60;;;3.30;;
15285;SDS011;7744;52.172;10.668;2023-04-26T06:09:41;10.50;;;4.00;;
15285;SDS011;7744;52.172;10.668;2023-04-26T06:12:06;8.50;;;3.27;;
15285;SDS011;7744;52.172;10.668;2023-04-26T06:17:04;8.83;;;3.37;;
15285;SDS011;7744;52.172;10.668;2023-04-26T06:22:00;9.00;;;3.40;;
15285;SDS011;7744;52.172;10.668;2023-04-26T06:24:25;12.00;;;3.83;;
15285;SDS011;7744;52.172;10.668;2023-04-26T06:26:51;14.37;;;3.87;;
15285;SDS011;7744;52.172;10.668;2023-04-26T06:29:16;9.17;;;3.40;;
15285;SDS011;7744;52.172;10.668;2023-04-26T06:31:42;9.50;;;3.57;;
15285;SDS011;7744;52.172;10.668;2023-04-26T06:34:22;11.43;;;3.63;;
15285;SDS011;7744;52.172;10.668;2023-04-26T06:36:47;9.20;;;3.50;;
15285;SDS011;7744;52.172;10.668;2023-04-26T06:39:14;9.17;;;2.83;;
15285;SDS011;7744;52.172;10.668;2023-04-26T06:41:41;9.77;;;3.20;;
15285;SDS011;7744;52.172;10.668;2023-04-26T06:44:07;9.43;;;3.53;;
15285;SDS011;7744;52.172;10.668;2023-04-26T06:49:06;5.43;;;2.27;;
15285;SDS011;7744;52.172;10.668;2023-04-26T06:51:32;6.90;;;2.40;;
15285;SDS011;7744;52.172;10.668;2023-04-26T06:53:57;8.47;;;2.47;;
15285;SDS011;7744;52.172;10.668;2023-04-26T06:56:24;6.67;;;2.20;;
15285;SDS011;7744;52.172;10.668;2023-04-26T06:58:57;5.30;;;2.23;;
15285;SDS011;7744;52.172;10.668;2023-04-26T07:01:27;5.43;;;2.53;;
15285;SDS011;7744;52.172;10.668;2023-04-26T07:04:04;5.73;;;2.30;;
15285;SDS011;7744;52.172;10.668;2023-04-26T07:06:37;8.88;;;2.70;;
15285;SDS011;7744;52.172;10.668;2023-04-26T07:09:06;6.93;;;2.63;;
15285;SDS011;7744;52.172;10.668;2023-04-26T07:11:34;7.03;;;2.93;;
15285;SDS011;7744;52.172;10.668;2023-04-26T07:14:03;6.73;;;2.47;;
15285;SDS011;7744;52.172;10.668;2023-04-26T07:16:50;9.63;;;2.70;;
15285;SDS011;7744;52.172;10.668;2023-04-26T07:19:17;8.70;;;2.90;;
15285;SDS011;7744;52.172;10.668;2023-04-26T07:21:51;9.07;;;2.87;;
15285;SDS011;7744;52.172;10.668;2023-04-26T07:24:17;9.53;;;2.70;;
15285;SDS011;7744;52.172;10.668;2023-04-26T07:26:44;6.33;;;2.80;;
15285;SDS011;7744;52.172;10.668;2023-04-26T07:29:12;9.43;;;2.90;;
15285;SDS011;7744;52.172;10.668;2023-04-26T07:31:38;10.80;;;2.70;;
15285;SDS011;7744;52.172;10.668;2023-04-26T07:34:04;12.57;;;3.13;;
15285;SDS011;7744;52.172;10.668;2023-04-26T07:36:29;7.80;;;3.30;;
15285;SDS011;7744;52.172;10.668;2023-04-26T07:38:58;6.03;;;2.50;;
15285;SDS011;7744;52.172;10.668;2023-04-26T07:41:45;7.87;;;2.80;;
15285;SDS011;7744;52.172;10.668;2023-04-26T07:44:11;5.97;;;2.70;;
15285;SDS011;7744;52.172;10.668;2023-04-26T07:46:37;5.07;;;2.60;;
15285;SDS011;7744;52.172;10.668;2023-04-26T07:49:03;8.03;;;2.80;;
15285;SDS011;7744;52.172;10.668;2023-04-26T07:51:29;8.30;;;3.00;;
15285;SDS011;7744;52.172;10.668;2023-04-26T07:56:58;7.13;;;2.70;;
15285;SDS011;7744;52.172;10.668;2023-04-26T07:59:24;7.20;;;2.63;;
15285;SDS011;7744;52.172;10.668;2023-04-26T08:01:50;5.63;;;2.67;;
15285;SDS011;7744;52.172;10.668;2023-04-26T08:04:23;5.53;;;2.63;;
15285;SDS011;7744;52.172;10.668;2023-04-26T08:06:58;7.57;;;2.60;;
15285;SDS011;7744;52.172;10.668;2023-04-26T08:09:29;8.03;;;2.63;;
15285;SDS011;7744;52.172;10.668;2023-04-26T08:11:55;10.10;;;3.03;;
15285;SDS011;7744;52.172;10.668;2023-04-26T08:14:21;5.30;;;2.27;;
15285;SDS011;7744;52.172;10.668;2023-04-26T08:16:47;8.07;;;2.40;;
15285;SDS011;7744;52.172;10.668;2023-04-26T08:19:13;7.60;;;2.83;;
15285;SDS011;7744;52.172;10.668;2023-04-26T08:21:38;5.13;;;2.20;;
15285;SDS011;7744;52.172;10.668;2023-04-26T08:24:05;5.17;;;2.60;;
15285;SDS011;7744;52.172;10.668;2023-04-26T08:26:31;4.33;;;2.20;;
15285;SDS011;7744;52.172;10.668;2023-04-26T08:28:56;6.80;;;2.53;;
15285;SDS011;7744;52.172;10.668;2023-04-26T08:31:22;6.47;;;2.50;;
15285;SDS011;7744;52.172;10.668;2023-04-26T08:33:48;5.40;;;2.20;;
15285;SDS011;7744;52.172;10.668;2023-04-26T08:36:13;5.77;;;2.43;;
15285;SDS011;7744;52.172;10.668;2023-04-26T08:38:40;4.67;;;2.00;;
15285;SDS011;7744;52.172;10.668;2023-04-26T08:41:06;5.20;;;1.93;;
15285;SDS011;7744;52.172;10.668;2023-04-26T08:43:37;6.17;;;2.13;;
15285;SDS011;7744;52.172;10.668;2023-04-26T08:46:04;5.60;;;1.90;;
15285;SDS011;7744;52.172;10.668;2023-04-26T08:48:34;7.70;;;2.03;;
15285;SDS011;7744;52.172;10.668;2023-04-26T08:51:01;7.00;;;2.07;;
15285;SDS011;7744;52.172;10.668;2023-04-26T08:53:27;8.40;;;2.17;;
15285;SDS011;7744;52.172;10.668;2023-04-26T08:55:55;3.40;;;1.77;;
15285;SDS011;7744;52.172;10.668;2023-04-26T08:58:21;5.87;;;2.33;;
15285;SDS011;7744;52.172;10.668;2023-04-26T09:00:47;3.40;;;2.00;;
15285;SDS011;7744;52.172;10.668;2023-04-26T09:03:14;4.63;;;1.90;;
15285;SDS011;7744;52.172;10.668;2023-04-26T09:05:40;4.17;;;1.80;;
15285;SDS011;7744;52.172;10.668;2023-04-26T09:08:14;4.50;;;1.80;;
15285;SDS011;7744;52.172;10.668;2023-04-26T09:10:41;6.57;;;2.00;;
15285;SDS011;7744;52.172;10.668;2023-04-26T09:13:07;5.00;;;1.90;;
15285;SDS011;7744;52.172;10.668;2023-04-26T09:15:32;4.33;;;2.27;;
15285;SDS011;7744;52.172;10.668;2023-04-26T09:18:14;7.77;;;2.70;;
15285;SDS011;7744;52.172;10.668;2023-04-26T09:20:44;9.50;;;2.80;;
15285;SDS011;7744;52.172;10.668;2023-04-26T09:23:24;6.93;;;2.90;;
15285;SDS011;7744;52.172;10.668;2023-04-26T09:25:50;6.23;;;2.13;;
15285;SDS011;7744;52.172;10.668;2023-04-26T09:28:19;6.03;;;2.00;;
15285;SDS011;7744;52.172;10.668;2023-04-26T09:30:46;7.77;;;2.60;;
15285;SDS011;7744;52.172;10.668;2023-04-26T09:33:12;6.87;;;1.73;;
15285;SDS011;7744;52.172;10.668;2023-04-26T09:35:41;3.63;;;1.70;;
15285;SDS011;7744;52.172;10.668;2023-04-26T09:38:11;4.67;;;2.20;;
15285;SDS011;7744;52.172;10.668;2023-04-26T09:43:08;6.60;;;2.10;;
15285;SDS011;7744;52.172;10.668;2023-04-26T09:45:42;6.80;;;2.10;;
15285;SDS011;7744;52.172;10.668;2023-04-26T09:50:45;6.10;;;2.10;;
15285;SDS011;7744;52.172;10.668;2023-04-26T09:53:23;6.20;;;2.38;;
15285;SDS011;7744;52.172;10.668;2023-04-26T09:55:51;5.90;;;2.13;;
15285;SDS011;7744;52.172;10.668;2023-04-26T09:58:18;5.37;;;2.07;;
15285;SDS011;7744;52.172;10.668;2023-04-26T10:00:43;6.40;;;1.70;;
15285;SDS011;7744;52.172;10.668;2023-04-26T10:03:11;6.43;;;1.83;;
15285;SDS011;7744;52.172;10.668;2023-04-26T10:05:37;5.17;;;1.87;;
15285;SDS011;7744;52.172;10.668;2023-04-26T10:08:04;2.90;;;1.80;;
15285;SDS011;7744;52.172;10.668;2023-04-26T10:10:30;5.43;;;1.93;;
15285;SDS011;7744;52.172;10.668;2023-04-26T10:12:56;4.87;;;1.57;;
15285;SDS011;7744;52.172;10.668;2023-04-26T10:15:22;3.17;;;1.30;;
15285;SDS011;7744;52.172;10.668;2023-04-26T10:17:47;5.83;;;1.73;;
15285;SDS011;7744;52.172;10.668;2023-04-26T10:20:13;4.67;;;1.40;;
15285;SDS011;7744;52.172;10.668;2023-04-26T10:22:43;3.37;;;1.23;;
15285;SDS011;7744;52.172;10.668;2023-04-26T10:25:14;4.97;;;1.47;;
15285;SDS011;7744;52.172;10.668;2023-04-26T10:30:10;4.17;;;1.50;;
15285;SDS011;7744;52.172;10.668;2023-04-26T10:35:32;2.70;;;1.40;;
15285;SDS011;7744;52.172;10.668;2023-04-26T10:45:44;5.83;;;1.80;;
15285;SDS011;7744;52.172;10.668;2023-04-26T10:48:13;2.60;;;1.60;;
15285;SDS011;7744;52.172;10.668;2023-04-26T10:56:49;4.57;;;1.60;;
15285;SDS011;7744;52.172;10.668;2023-04-26T11:02:08;4.53;;;1.70;;
15285;SDS011;7744;52.172;10.668;2023-04-26T11:04:53;4.53;;;1.60;;
15285;SDS011;7744;52.172;10.668;2023-04-26T11:07:37;4.93;;;1.83;;
15285;SDS011;7744;52.172;10.668;2023-04-26T11:10:06;7.60;;;2.03;;
15285;SDS011;7744;52.172;10.668;2023-04-26T11:12:34;2.73;;;1.60;;
15285;SDS011;7744;52.172;10.668;2023-04-26T11:15:00;2.57;;;1.70;;
15285;SDS011;7744;52.172;10.668;2023-04-26T11:17:26;3.73;;;1.63;;
15285;SDS011;7744;52.172;10.668;2023-04-26T11:19:51;2.77;;;1.73;;
15285;SDS011;7744;52.172;10.668;2023-04-26T11:22:20;3.27;;;1.50;;
15285;SDS011;7744;52.172;10.668;2023-04-26T11:24:46;2.90;;;1.70;;
15285;SDS011;7744;52.172;10.668;2023-04-26T11:27:12;4.03;;;1.53;;
15285;SDS011;7744;52.172;10.668;2023-04-26T11:29:38;3.57;;;1.63;;
15285;SDS011;7744;52.172;10.668;2023-04-26T11:32:03;3.67;;;1.70;;
15285;SDS011;7744;52.172;10.668;2023-04-26T11:37:00;3.83;;;1.50;;
15285;SDS011;7744;52.172;10.668;2023-04-26T11:39:26;3.20;;;1.40;;
15285;SDS011;7744;52.172;10.668;2023-04-26T11:41:55;3.50;;;1.70;;
15285;SDS011;7744;52.172;10.668;2023-04-26T11:44:31;3.60;;;1.80;;
15285;SDS011;7744;52.172;10.668;2023-04-26T11:46:57;3.00;;;1.90;;
15285;SDS011;7744;52.172;10.668;2023-04-26T11:49:24;8.87;;;2.00;;
15285;SDS011;7744;52.172;10.668;2023-04-26T11:51:49;3.93;;;2.03;;
15285;SDS011;7744;52.172;10.668;2023-04-26T11:56:54;3.70;;;1.80;;
15285;SDS011;7744;52.172;10.668;2023-04-26T11:59:26;3.00;;;1.93;;
15285;SDS011;7744;52.172;10.668;2023-04-26T12:01:54;2.80;;;1.83;;
15285;SDS011;7744;52.172;10.668;2023-04-26T12:04:26;3.00;;;1.60;;
15285;SDS011;7744;52.172;10.668;2023-04-26T12:06:55;5.57;;;2.10;;
15285;SDS011;7744;52.172;10.668;2023-04-26T12:09:25;4.37;;;2.30;;
15285;SDS011;7744;52.172;10.668;2023-04-26T12:12:01;4.67;;;2.20;;
15285;SDS011;7744;52.172;10.668;2023-04-26T12:14:36;4.10;;;2.00;;
15285;SDS011;7744;52.172;10.668;2023-04-26T12:17:38;5.53;;;2.13;;
15285;SDS011;7744;52.172;10.668;2023-04-26T12:20:07;2.63;;;1.77;;
15285;SDS011;7744;52.172;10.668;2023-04-26T12:22:36;5.43;;;2.40;;
15285;SDS011;7744;52.172;10.668;2023-04-26T12:25:02;4.57;;;2.30;;
15285;SDS011;7744;52.172;10.668;2023-04-26T12:27:30;3.47;;;1.90;;
15285;SDS011;7744;52.172;10.668;2023-04-26T12:29:56;3.53;;;1.80;;
15285;SDS011;7744;52.172;10.668;2023-04-26T12:32:23;3.03;;;1.60;;
15285;SDS011;7744;52.172;10.668;2023-04-26T12:34:49;3.03;;;1.53;;
15285;SDS011;7744;52.172;10.668;2023-04-26T12:37:17;5.93;;;2.00;;
15285;SDS011;7744;52.172;10.668;2023-04-26T12:39:42;4.87;;;1.70;;
15285;SDS011;7744;52.172;10.668;2023-04-26T12:42:08;4.23;;;2.30;;
15285;SDS011;7744;52.172;10.668;2023-04-26T12:44:34;3.20;;;2.20;;
15285;SDS011;7744;52.172;10.668;2023-04-26T12:47:13;3.97;;;2.00;;
15285;SDS011;7744;52.172;10.668;2023-04-26T12:49:39;4.10;;;1.83;;
15285;SDS011;7744;52.172;10.668;2023-04-26T12:52:05;4.07;;;2.30;;
15285;SDS011;7744;52.172;10.668;2023-04-26T12:57:20;4.13;;;2.00;;
15285;SDS011;7744;52.172;10.668;2023-04-26T12:59:53;5.88;;;1.80;;
15285;SDS011;7744;52.172;10.668;2023-04-26T13:02:19;3.40;;;1.85;;
15285;SDS011;7744;52.172;10.668;2023-04-26T13:04:53;5.53;;;1.90;;
15285;SDS011;7744;52.172;10.668;2023-04-26T13:07:18;5.80;;;3.47;;
15285;SDS011;7744;52.172;10.668;2023-04-26T13:09:46;4.33;;;2.40;;
15285;SDS011;7744;52.172;10.668;2023-04-26T13:12:13;3.43;;;1.97;;
15285;SDS011;7744;52.172;10.668;2023-04-26T13:14:47;3.63;;;2.07;;
15285;SDS011;7744;52.172;10.668;2023-04-26T13:17:12;3.83;;;2.03;;
15285;SDS011;7744;52.172;10.668;2023-04-26T13:19:38;5.07;;;2.10;;
15285;SDS011;7744;52.172;10.668;2023-04-26T13:22:04;3.37;;;1.60;;
15285;SDS011;7744;52.172;10.668;2023-04-26T13:24:32;4.53;;;1.80;;
15285;SDS011;7744;52.172;10.668;2023-04-26T13:26:58;3.00;;;1.73;;
15285;SDS011;7744;52.172;10.668;2023-04-26T13:29:24;3.50;;;1.97;;
15285;SDS011;7744;52.172;10.668;2023-04-26T13:31:51;4.30;;;2.10;;
15285;SDS011;7744;52.172;10.668;2023-04-26T13:34:16;3.40;;;1.83;;
15285;SDS011;7744;52.172;10.668;2023-04-26T13:36:42;3.23;;;2.13;;
15285;SDS011;7744;52.172;10.668;2023-04-26T13:39:08;3.77;;;2.23;;
15285;SDS011;7744;52.172;10.668;2023-04-26T13:41:34;5.87;;;2.70;;
15285;SDS011;7744;52.172;10.668;2023-04-26T13:44:00;2.73;;;2.20;;
15285;SDS011;7744;52.172;10.668;2023-04-26T13:46:26;6.40;;;2.17;;
15285;SDS011;7744;52.172;10.668;2023-04-26T13:48:53;5.63;;;2.30;;
15285;SDS011;7744;52.172;10.668;2023-04-26T13:51:19;2.87;;;2.23;;
15285;SDS011;7744;52.172;10.668;2023-04-26T13:53:46;3.97;;;2.30;;
15285;SDS011;7744;52.172;10.668;2023-04-26T13:56:11;3.60;;;2.10;;
15285;SDS011;7744;52.172;10.668;2023-04-26T13:58:38;3.87;;;2.10;;
15285;SDS011;7744;52.172;10.668;2023-04-26T14:01:06;3.20;;;2.00;;
15285;SDS011;7744;52.172;10.668;2023-04-26T14:03:31;6.13;;;2.40;;
15285;SDS011;7744;52.172;10.668;2023-04-26T14:05:58;4.33;;;2.30;;
15285;SDS011;7744;52.172;10.668;2023-04-26T14:08:24;4.53;;;2.27;;
15285;SDS011;7744;52.172;10.668;2023-04-26T14:10:51;3.00;;;2.20;;
15285;SDS011;7744;52.172;10.668;2023-04-26T14:13:17;3.73;;;2.23;;
15285;SDS011;7744;52.172;10.668;2023-04-26T14:15:42;3.27;;;2.27;;
15285;SDS011;7744;52.172;10.668;2023-04-26T14:18:08;4.70;;;2.40;;
15285;SDS011;7744;52.172;10.668;2023-04-26T14:20:34;4.30;;;2.30;;
15285;SDS011;7744;52.172;10.668;2023-04-26T14:25:55;3.90;;;2.30;;
15285;SDS011;7744;52.172;10.668;2023-04-26T14:28:20;4.60;;;2.20;;
15285;SDS011;7744;52.172;10.668;2023-04-26T14:30:46;3.87;;;2.40;;
15285;SDS011;7744;52.172;10.668;2023-04-26T14:33:12;3.80;;;2.40;;
15285;SDS011;7744;52.172;10.668;2023-04-26T14:35:37;3.30;;;2.37;;
15285;SDS011;7744;52.172;10.668;2023-04-26T14:38:03;3.97;;;2.03;;
15285;SDS011;7744;52.172;10.668;2023-04-26T14:40:30;3.47;;;2.10;;
15285;SDS011;7744;52.172;10.668;2023-04-26T14:42:56;4.53;;;2.40;;
15285;SDS011;7744;52.172;10.668;2023-04-26T14:45:21;3.60;;;2.20;;
15285;SDS011;7744;52.172;10.668;2023-04-26T14:47:47;6.40;;;2.00;;
15285;SDS011;7744;52.172;10.668;2023-04-26T14:50:12;3.20;;;2.10;;
15285;SDS011;7744;52.172;10.668;2023-04-26T14:52:38;3.77;;;1.80;;
15285;SDS011;7744;52.172;10.668;2023-04-26T14:55:04;1.90;;;1.80;;
15285;SDS011;7744;52.172;10.668;2023-04-26T14:57:30;3.33;;;1.97;;
15285;SDS011;7744;52.172;10.668;2023-04-26T14:59:56;4.77;;;2.00;;
15285;SDS011;7744;52.172;10.668;2023-04-26T15:02:30;3.90;;;1.90;;
15285;SDS011;7744;52.172;10.668;2023-04-26T15:04:56;3.20;;;1.90;;
15285;SDS011;7744;52.172;10.668;2023-04-26T15:07:22;2.87;;;1.83;;
15285;SDS011;7744;52.172;10.668;2023-04-26T15:09:47;3.20;;;1.80;;
15285;SDS011;7744;52.172;10.668;2023-04-26T15:12:13;3.80;;;1.83;;
15285;SDS011;7744;52.172;10.668;2023-04-26T15:14:39;5.03;;;1.90;;
15285;SDS011;7744;52.172;10.668;2023-04-26T15:17:04;3.20;;;1.90;;
15285;SDS011;7744;52.172;10.668;2023-04-26T15:19:30;4.57;;;1.70;;
15285;SDS011;7744;52.172;10.668;2023-04-26T15:21:56;3.17;;;1.90;;
15285;SDS011;7744;52.172;10.668;2023-04-26T15:24:22;4.50;;;1.63;;
15285;SDS011;7744;52.172;10.668;2023-04-26T15:26:47;2.77;;;1.70;;
15285;SDS011;7744;52.172;10.668;2023-04-26T15:29:13;4.77;;;1.93;;
15285;SDS011;7744;52.172;10.668;2023-04-26T15:31:38;3.10;;;1.80;;
15285;SDS011;7744;52.172;10.668;2023-04-26T15:34:04;3.03;;;2.10;;
15285;SDS011;7744;52.172;10.668;2023-04-26T15:36:29;4.83;;;2.00;;
15285;SDS011;7744;52.172;10.668;2023-04-26T15:38:55;4.33;;;2.10;;
15285;SDS011;7744;52.172;10.668;2023-04-26T15:41:21;2.63;;;1.60;;
15285;SDS011;7744;52.172;10.668;2023-04-26T15:43:50;3.30;;;2.10;;
15285;SDS011;7744;52.172;10.668;2023-04-26T15:46:18;2.70;;;1.75;;